createdAt,value
2024-03-02T00:00:54.826Z,8.90
2024-03-02T00:01:54.790Z,-39.76
2024-03-02T00:02:54.748Z,-39.76
2024-03-02T00:03:54.850Z,-39.76
2024-03-02T00:04:54.722Z,8.32
2024-03-02T00:05:54.712Z,8.65
2024-03-02T00:06:54.834Z,8.78
2024-03-02T00:07:54.725Z,8.84
2024-03-02T00:08:54.668Z,8.90
2024-03-02T00:09:54.788Z,8.97
2024-03-02T00:10:54.664Z,8.97
2024-03-02T00:11:54.648Z,8.97
2024-03-02T00:12:54.756Z,8.94
2024-03-02T00:13:54.668Z,8.96
2024-03-02T00:14:54.623Z,8.97
2024-03-02T00:15:54.769Z,9.02
2024-03-02T00:16:54.591Z,-39.76
2024-03-02T00:17:54.631Z,8.47
2024-03-02T00:18:54.593Z,8.72
2024-03-02T00:19:54.590Z,8.83
2024-03-02T00:20:54.557Z,8.88
2024-03-02T00:21:54.586Z,8.94
2024-03-02T00:22:54.516Z,8.97
2024-03-02T00:23:54.513Z,8.94
2024-03-02T00:24:54.526Z,8.96
2024-03-02T00:25:54.546Z,9.01
2024-03-02T00:26:54.479Z,8.99
2024-03-02T00:27:54.526Z,9.02
2024-03-02T00:28:54.455Z,9.05
2024-03-02T00:29:55.358Z,9.05
2024-03-02T00:30:54.521Z,9.06
2024-03-02T00:31:54.499Z,9.09
2024-03-02T00:32:54.525Z,9.09
2024-03-02T00:33:54.465Z,9.06
2024-03-02T00:34:54.440Z,9.05
2024-03-02T00:35:54.404Z,9.06
2024-03-02T00:36:54.441Z,9.02
2024-03-02T00:37:54.423Z,8.99
2024-03-02T00:38:54.363Z,8.97
2024-03-02T00:39:54.414Z,8.97
2024-03-02T00:40:54.330Z,9.02
2024-03-02T00:41:54.312Z,9.02
2024-03-02T00:42:54.377Z,8.99
2024-03-02T00:43:54.339Z,9.05
2024-03-02T00:44:54.309Z,9.10
2024-03-02T00:45:54.294Z,9.13
2024-03-02T00:46:54.267Z,9.15
2024-03-02T00:47:54.285Z,9.13
2024-03-02T00:48:54.272Z,-39.76
2024-03-02T00:49:54.257Z,-39.76
2024-03-02T00:50:54.239Z,8.54
2024-03-02T00:51:54.372Z,8.84
2024-03-02T00:52:54.203Z,8.99
2024-03-02T00:53:54.185Z,9.02
2024-03-02T00:54:54.262Z,9.09
2024-03-02T00:55:54.249Z,9.10
2024-03-02T00:56:54.179Z,9.04
2024-03-02T00:57:54.216Z,8.99
2024-03-02T00:58:54.180Z,9.04
2024-03-02T00:59:54.147Z,9.10
2024-03-02T01:00:54.193Z,9.10
2024-03-02T01:01:54.207Z,9.13
2024-03-02T01:02:54.088Z,9.15
2024-03-02T01:03:54.260Z,9.18
2024-03-02T01:04:54.062Z,-39.76
2024-03-02T01:05:54.093Z,9.16
2024-03-02T01:06:54.075Z,9.16
2024-03-02T01:07:54.114Z,9.15
2024-03-02T01:08:54.167Z,9.15
2024-03-02T01:09:54.055Z,9.16
2024-03-02T01:10:54.054Z,9.20
2024-03-02T01:11:54.004Z,-39.76
2024-03-02T01:12:54.044Z,-39.76
2024-03-02T01:13:54.195Z,-39.76
2024-03-02T01:14:53.963Z,-39.76
2024-03-02T01:15:54.000Z,-39.76
2024-03-02T01:16:53.954Z,-39.76
2024-03-02T01:17:55.944Z,-39.76
2024-03-02T01:18:54.044Z,-39.76
2024-03-02T01:19:53.928Z,-39.76
2024-03-02T01:20:53.901Z,-39.76
2024-03-02T01:21:53.962Z,-39.76
2024-03-02T01:22:53.870Z,-39.76
2024-03-02T01:23:53.871Z,-39.76
2024-03-02T01:24:53.928Z,-39.76
2024-03-02T01:25:53.877Z,-39.76
2024-03-02T01:26:53.840Z,-39.76
2024-03-02T01:27:53.846Z,-39.76
2024-03-02T01:28:53.980Z,-39.76
2024-03-02T01:29:53.857Z,-39.76
2024-03-02T01:30:53.907Z,-39.76
2024-03-02T01:31:53.818Z,-39.76
2024-03-02T01:32:53.805Z,8.11
2024-03-02T01:33:53.800Z,8.45
2024-03-02T01:34:53.757Z,8.63
2024-03-02T01:35:53.740Z,-39.76
2024-03-02T01:36:53.884Z,-39.76
2024-03-02T01:37:53.757Z,-39.76
2024-03-02T01:38:53.705Z,-39.76
2024-03-02T01:39:53.743Z,-39.76
2024-03-02T01:40:53.688Z,-39.76
2024-03-02T01:41:53.668Z,7.74
2024-03-02T01:42:53.712Z,8.02
2024-03-02T01:43:53.750Z,8.15
2024-03-02T01:44:53.672Z,8.28
2024-03-02T01:45:53.708Z,8.37
2024-03-02T01:46:53.637Z,8.40
2024-03-02T01:47:53.666Z,8.47
2024-03-02T01:48:53.647Z,8.47
2024-03-02T01:49:53.711Z,8.45
2024-03-02T01:50:53.578Z,8.35
2024-03-02T01:51:53.601Z,-39.76
2024-03-02T01:52:53.556Z,-39.76
2024-03-02T01:53:53.650Z,-39.76
2024-03-02T01:54:53.613Z,7.67
2024-03-02T01:55:53.537Z,8.04
2024-03-02T01:56:53.508Z,8.17
2024-03-02T01:57:53.595Z,8.22
2024-03-02T01:58:53.492Z,8.30
2024-03-02T01:59:53.473Z,8.35
2024-03-02T02:00:53.523Z,-39.76
2024-03-02T02:01:53.485Z,-39.76
2024-03-02T02:02:53.440Z,-39.76
2024-03-02T02:03:53.494Z,-39.76
2024-03-02T02:04:53.426Z,-39.76
2024-03-02T02:05:53.428Z,-39.76
2024-03-02T02:06:53.464Z,-39.76
2024-03-02T02:07:53.435Z,-39.76
2024-03-02T02:08:53.389Z,-39.76
2024-03-02T02:09:53.422Z,-39.76
2024-03-02T02:10:53.394Z,-39.76
2024-03-02T02:11:53.347Z,7.42
2024-03-02T02:12:53.420Z,7.82
2024-03-02T02:13:53.369Z,8.04
2024-03-02T02:14:53.304Z,8.20
2024-03-02T02:15:53.324Z,8.25
2024-03-02T02:16:53.292Z,8.21
2024-03-02T02:17:53.317Z,8.18
2024-03-02T02:18:53.350Z,8.15
2024-03-02T02:19:53.291Z,8.14
2024-03-02T02:20:53.240Z,8.14
2024-03-02T02:21:53.286Z,8.11
2024-03-02T02:22:53.221Z,8.11
2024-03-02T02:23:53.223Z,8.11
2024-03-02T02:24:53.244Z,8.10
2024-03-02T02:25:53.225Z,8.03
2024-03-02T02:26:53.176Z,8.02
2024-03-02T02:27:53.315Z,8.03
2024-03-02T02:28:53.159Z,8.07
2024-03-02T02:29:53.141Z,8.04
2024-03-02T02:30:53.155Z,8.12
2024-03-02T02:31:53.260Z,8.12
2024-03-02T02:32:53.169Z,8.10
2024-03-02T02:33:53.111Z,8.11
2024-03-02T02:34:53.085Z,8.10
2024-03-02T02:35:53.079Z,8.07
2024-03-02T02:36:53.148Z,8.02
2024-03-02T02:37:53.095Z,7.97
2024-03-02T02:38:53.063Z,7.94
2024-03-02T02:39:53.041Z,7.96
2024-03-02T02:40:53.052Z,7.90
2024-03-02T02:41:53.020Z,7.82
2024-03-02T02:42:53.289Z,7.78
2024-03-02T02:43:53.057Z,7.75
2024-03-02T02:44:52.976Z,7.81
2024-03-02T02:45:53.024Z,7.82
2024-03-02T02:46:53.031Z,7.81
2024-03-02T02:47:52.968Z,7.82
2024-03-02T02:48:52.996Z,7.85
2024-03-02T02:49:52.962Z,7.90
2024-03-02T02:50:52.919Z,7.85
2024-03-02T02:51:52.989Z,7.82
2024-03-02T02:52:52.909Z,7.87
2024-03-02T02:53:52.881Z,7.90
2024-03-02T02:54:52.964Z,7.90
2024-03-02T02:55:52.896Z,7.92
2024-03-02T02:56:52.865Z,7.94
2024-03-02T02:57:52.906Z,7.97
2024-03-02T02:58:52.837Z,7.96
2024-03-02T02:59:52.821Z,7.97
2024-03-02T03:00:52.921Z,7.99
2024-03-02T03:01:52.872Z,7.96
2024-03-02T03:02:52.796Z,7.92
2024-03-02T03:03:52.824Z,7.87
2024-03-02T03:04:52.889Z,7.82
2024-03-02T03:05:52.765Z,7.77
2024-03-02T03:06:52.916Z,7.72
2024-03-02T03:07:52.764Z,7.72
2024-03-02T03:08:52.734Z,7.71
2024-03-02T03:09:52.756Z,7.66
2024-03-02T03:10:52.732Z,7.60
2024-03-02T03:11:52.685Z,7.58
2024-03-02T03:12:52.727Z,7.60
2024-03-02T03:13:52.710Z,7.62
2024-03-02T03:14:52.658Z,7.59
2024-03-02T03:15:52.665Z,7.60
2024-03-02T03:16:52.639Z,7.60
2024-03-02T03:17:52.675Z,7.59
2024-03-02T03:18:52.712Z,7.62
2024-03-02T03:19:52.643Z,7.58
2024-03-02T03:20:52.597Z,7.56
2024-03-02T03:21:52.768Z,7.53
2024-03-02T03:22:52.571Z,7.50
2024-03-02T03:23:52.561Z,7.47
2024-03-02T03:24:52.824Z,7.40
2024-03-02T03:25:52.583Z,7.35
2024-03-02T03:26:52.569Z,7.35
2024-03-02T03:27:52.592Z,7.31
2024-03-02T03:28:52.511Z,7.24
2024-03-02T03:29:52.487Z,7.22
2024-03-02T03:30:52.569Z,7.19
2024-03-02T03:31:52.521Z,7.17
2024-03-02T03:32:52.454Z,7.15
2024-03-02T03:33:52.525Z,7.16
2024-03-02T03:34:52.496Z,7.12
2024-03-02T03:35:52.445Z,7.12
2024-03-02T03:36:52.598Z,7.08
2024-03-02T03:37:52.437Z,7.05
2024-03-02T03:38:52.400Z,7.07
2024-03-02T03:39:52.442Z,7.08
2024-03-02T03:40:52.373Z,7.04
2024-03-02T03:41:52.357Z,7.04
2024-03-02T03:42:52.422Z,7.02
2024-03-02T03:43:52.372Z,6.99
2024-03-02T03:44:52.330Z,6.99
2024-03-02T03:45:52.344Z,6.95
2024-03-02T03:46:52.330Z,6.94
2024-03-02T03:47:52.342Z,6.94
2024-03-02T03:48:52.373Z,6.95
2024-03-02T03:49:52.307Z,6.90
2024-03-02T03:50:52.269Z,6.86
2024-03-02T03:51:52.306Z,6.80
2024-03-02T03:52:52.262Z,6.76
2024-03-02T03:53:52.229Z,6.69
2024-03-02T03:54:52.287Z,6.68
2024-03-02T03:55:52.254Z,6.65
2024-03-02T03:56:52.230Z,6.63
2024-03-02T03:57:52.219Z,6.63
2024-03-02T03:58:52.183Z,6.66
2024-03-02T03:59:52.158Z,6.68
2024-03-02T04:00:52.274Z,6.68
2024-03-02T04:01:52.264Z,6.68
2024-03-02T04:02:52.143Z,6.69
2024-03-02T04:03:52.239Z,6.76
2024-03-02T04:04:52.107Z,6.76
2024-03-02T04:05:52.095Z,6.71
2024-03-02T04:06:52.172Z,6.72
2024-03-02T04:07:52.098Z,6.73
2024-03-02T04:08:52.069Z,6.69
2024-03-02T04:09:52.133Z,6.68
2024-03-02T04:10:52.084Z,6.63
2024-03-02T04:11:52.032Z,6.61
2024-03-02T04:12:52.102Z,6.58
2024-03-02T04:13:52.046Z,6.56
2024-03-02T04:14:52.001Z,6.56
2024-03-02T04:15:52.022Z,6.54
2024-03-02T04:16:51.989Z,6.53
2024-03-02T04:17:52.004Z,6.51
2024-03-02T04:18:51.982Z,6.50
2024-03-02T04:19:51.974Z,6.48
2024-03-02T04:20:54.304Z,6.48
2024-03-02T04:21:51.981Z,6.46
2024-03-02T04:22:51.922Z,6.46
2024-03-02T04:23:51.913Z,6.44
2024-03-02T04:24:51.937Z,6.41
2024-03-02T04:25:51.930Z,6.40
2024-03-02T04:26:51.874Z,6.41
2024-03-02T04:27:51.983Z,6.38
2024-03-02T04:28:51.852Z,6.36
2024-03-02T04:29:51.841Z,6.38
2024-03-02T04:30:51.889Z,6.36
2024-03-02T04:31:51.911Z,6.35
2024-03-02T04:32:51.844Z,6.33
2024-03-02T04:33:51.852Z,6.38
2024-03-02T04:34:51.795Z,6.35
2024-03-02T04:35:51.775Z,6.35
2024-03-02T04:36:51.853Z,6.33
2024-03-02T04:37:51.773Z,6.30
2024-03-02T04:38:51.759Z,6.32
2024-03-02T04:39:51.766Z,6.35
2024-03-02T04:40:51.728Z,6.40
2024-03-02T04:41:51.708Z,6.38
2024-03-02T04:42:51.746Z,6.38
2024-03-02T04:43:51.725Z,6.38
2024-03-02T04:44:51.677Z,6.38
2024-03-02T04:45:51.706Z,6.40
2024-03-02T04:46:51.671Z,6.40
2024-03-02T04:47:51.644Z,6.38
2024-03-02T04:48:51.689Z,6.32
2024-03-02T04:49:51.658Z,6.32
2024-03-02T04:50:51.616Z,6.32
2024-03-02T04:51:51.655Z,6.30
2024-03-02T04:52:51.599Z,6.30
2024-03-02T04:53:51.578Z,6.29
2024-03-02T04:54:51.657Z,6.29
2024-03-02T04:55:51.594Z,6.26
2024-03-02T04:56:51.904Z,6.22
2024-03-02T04:57:51.625Z,6.21
2024-03-02T04:58:51.524Z,6.25
2024-03-02T04:59:51.513Z,6.21
2024-03-02T05:00:51.658Z,6.21
2024-03-02T05:01:51.579Z,6.25
2024-03-02T05:02:51.485Z,6.29
2024-03-02T05:03:51.543Z,6.30
2024-03-02T05:04:51.456Z,6.28
2024-03-02T05:05:51.445Z,6.26
2024-03-02T05:06:52.060Z,6.29
2024-03-02T05:07:51.450Z,6.26
2024-03-02T05:08:51.413Z,6.32
2024-03-02T05:09:51.460Z,6.35
2024-03-02T05:10:51.413Z,6.41
2024-03-02T05:11:51.388Z,6.43
2024-03-02T05:12:51.415Z,6.43
2024-03-02T05:13:51.398Z,6.46
2024-03-02T05:14:51.351Z,-39.76
2024-03-02T05:15:51.361Z,5.83
2024-03-02T05:16:51.345Z,6.16
2024-03-02T05:17:51.378Z,6.32
2024-03-02T05:18:51.332Z,6.36
2024-03-02T05:19:51.322Z,6.35
2024-03-02T05:20:51.294Z,6.40
2024-03-02T05:21:51.313Z,6.44
2024-03-02T05:22:51.265Z,6.51
2024-03-02T05:23:51.257Z,6.54
2024-03-02T05:24:51.274Z,6.56
2024-03-02T05:25:51.267Z,6.56
2024-03-02T05:26:51.236Z,6.56
2024-03-02T05:27:51.239Z,6.54
2024-03-02T05:28:51.190Z,6.53
2024-03-02T05:29:51.195Z,6.53
2024-03-02T05:30:51.197Z,6.48
2024-03-02T05:31:51.224Z,6.46
2024-03-02T05:32:51.149Z,6.43
2024-03-02T05:33:55.974Z,6.44
2024-03-02T05:34:51.138Z,6.41
2024-03-02T05:35:51.131Z,6.36
2024-03-02T05:36:51.204Z,6.33
2024-03-02T05:37:51.157Z,6.32
2024-03-02T05:38:51.084Z,6.28
2024-03-02T05:39:51.146Z,6.22
2024-03-02T05:40:51.068Z,6.19
2024-03-02T05:41:51.071Z,6.16
2024-03-02T05:42:51.143Z,6.13
2024-03-02T05:43:51.083Z,6.04
2024-03-02T05:44:51.026Z,5.98
2024-03-02T05:45:57.973Z,5.88
2024-03-02T05:46:51.095Z,5.81
2024-03-02T05:47:51.064Z,5.78
2024-03-02T05:48:51.075Z,5.75
2024-03-02T05:49:51.011Z,5.74
2024-03-02T05:50:50.975Z,5.70
2024-03-02T05:51:51.018Z,5.64
2024-03-02T05:52:50.942Z,5.60
2024-03-02T05:53:50.929Z,5.57
2024-03-02T05:54:51.015Z,5.57
2024-03-02T05:55:50.949Z,5.52
2024-03-02T05:56:50.907Z,5.50
2024-03-02T05:57:50.994Z,5.48
2024-03-02T05:58:50.869Z,5.48
2024-03-02T05:59:50.865Z,5.52
2024-03-02T06:00:50.945Z,5.57
2024-03-02T06:01:50.920Z,5.57
2024-03-02T06:02:50.847Z,5.60
2024-03-02T06:03:50.865Z,5.63
2024-03-02T06:04:50.820Z,5.57
2024-03-02T06:05:50.809Z,5.60
2024-03-02T06:06:51.106Z,5.63
2024-03-02T06:07:50.806Z,5.66
2024-03-02T06:08:50.771Z,5.70
2024-03-02T06:09:50.763Z,5.67
2024-03-02T06:10:50.805Z,5.71
2024-03-02T06:11:50.731Z,5.77
2024-03-02T06:12:50.796Z,5.85
2024-03-02T06:13:50.755Z,5.95
2024-03-02T06:14:50.700Z,6.04
2024-03-02T06:15:50.692Z,6.04
2024-03-02T06:16:50.761Z,6.04
2024-03-02T06:17:50.686Z,6.07
2024-03-02T06:18:50.668Z,6.06
2024-03-02T06:19:50.675Z,6.07
2024-03-02T06:20:50.636Z,6.07
2024-03-02T06:21:50.690Z,6.10
2024-03-02T06:22:50.614Z,6.09
2024-03-02T06:23:50.608Z,6.09
2024-03-02T06:24:50.622Z,6.14
2024-03-02T06:25:50.619Z,6.14
2024-03-02T06:26:50.635Z,6.21
2024-03-02T06:27:50.570Z,6.29
2024-03-02T06:28:50.552Z,6.35
2024-03-02T06:29:50.544Z,6.40
2024-03-02T06:30:50.597Z,6.46
2024-03-02T06:31:53.462Z,6.50
2024-03-02T06:32:50.569Z,6.54
2024-03-02T06:33:50.543Z,6.56
2024-03-02T06:34:50.490Z,6.65
2024-03-02T06:35:50.482Z,6.69
2024-03-02T06:36:50.529Z,6.76
2024-03-02T06:37:50.499Z,6.81
2024-03-02T06:38:50.447Z,6.94
2024-03-02T06:39:50.481Z,7.02
2024-03-02T06:40:50.424Z,7.04
2024-03-02T06:41:50.422Z,7.07
2024-03-02T06:42:50.449Z,7.09
2024-03-02T06:43:50.440Z,6.83
2024-03-02T06:44:50.379Z,6.99
2024-03-02T06:45:50.398Z,7.07
2024-03-02T06:46:50.401Z,7.13
2024-03-02T06:47:50.397Z,7.13
2024-03-02T06:48:50.364Z,7.04
2024-03-02T06:49:50.369Z,7.02
2024-03-02T06:50:50.334Z,7.02
2024-03-02T06:51:50.302Z,6.97
2024-03-02T06:52:50.290Z,6.91
2024-03-02T06:53:50.285Z,6.94
2024-03-02T06:54:50.403Z,6.86
2024-03-02T06:55:50.328Z,6.83
2024-03-02T06:56:50.295Z,6.81
2024-03-02T06:57:50.300Z,6.77
2024-03-02T06:58:50.228Z,6.76
2024-03-02T06:59:50.216Z,6.76
2024-03-02T07:00:50.261Z,6.80
2024-03-02T07:01:50.258Z,6.83
2024-03-02T07:02:50.180Z,6.86
2024-03-02T07:03:50.217Z,6.86
2024-03-02T07:04:50.230Z,6.95
2024-03-02T07:05:50.175Z,6.98
2024-03-02T07:06:50.261Z,6.99
2024-03-02T07:07:50.161Z,6.95
2024-03-02T07:08:50.137Z,6.98
2024-03-02T07:09:50.159Z,7.08
2024-03-02T07:10:50.146Z,7.17
2024-03-02T07:11:52.331Z,7.20
2024-03-02T07:12:50.105Z,7.27
2024-03-02T07:13:50.122Z,7.35
2024-03-02T07:14:50.058Z,7.42
2024-03-02T07:15:50.087Z,7.44
2024-03-02T07:16:50.069Z,7.47
2024-03-02T07:17:50.032Z,7.53
2024-03-02T07:18:50.051Z,7.59
2024-03-02T07:19:50.120Z,7.66
2024-03-02T07:20:49.991Z,7.71
2024-03-02T07:21:50.015Z,7.72
2024-03-02T07:22:49.981Z,7.77
2024-03-02T07:23:49.966Z,7.82
2024-03-02T07:24:49.975Z,7.89
2024-03-02T07:27:49.927Z,8.07
2024-03-02T07:28:49.907Z,8.10
2024-03-02T07:29:49.901Z,8.15
2024-03-02T07:30:49.929Z,8.18
2024-03-02T07:31:49.947Z,8.25
2024-03-02T07:32:49.883Z,8.28
2024-03-02T07:33:49.895Z,8.32
2024-03-02T07:34:49.842Z,8.36
2024-03-02T07:35:49.825Z,8.37
2024-03-02T07:36:49.840Z,8.39
2024-03-02T07:37:49.846Z,8.37
2024-03-02T07:38:49.796Z,8.37
2024-03-02T07:39:49.867Z,8.42
2024-03-02T07:40:49.772Z,8.45
2024-03-02T07:41:49.796Z,8.50
2024-03-02T07:42:49.837Z,8.53
2024-03-02T07:43:49.787Z,8.55
2024-03-02T07:44:49.733Z,8.55
2024-03-02T07:45:49.782Z,8.57
2024-03-02T07:46:49.718Z,8.60
2024-03-02T07:47:49.720Z,8.63
2024-03-02T07:48:49.743Z,8.68
2024-03-02T07:49:49.718Z,8.68
2024-03-02T07:50:49.694Z,8.72
2024-03-02T07:51:49.670Z,8.71
2024-03-02T07:52:49.643Z,8.72
2024-03-02T07:53:49.636Z,8.78
2024-03-02T07:54:49.657Z,8.84
2024-03-02T07:55:49.633Z,8.86
2024-03-02T07:56:49.594Z,8.91
2024-03-02T07:57:49.607Z,8.96
2024-03-02T07:58:49.576Z,9.04
2024-03-02T07:59:49.572Z,9.04
2024-03-02T08:00:51.721Z,9.09
2024-03-02T08:01:49.586Z,9.13
2024-03-02T08:02:49.540Z,9.13
2024-03-02T08:03:49.598Z,9.15
2024-03-02T08:04:49.520Z,9.12
2024-03-02T08:05:49.516Z,9.16
2024-03-02T08:06:49.535Z,9.18
2024-03-02T08:07:49.519Z,9.24
2024-03-02T08:08:49.468Z,9.23
2024-03-02T08:09:49.543Z,9.25
2024-03-02T08:10:49.497Z,9.31
2024-03-02T08:11:49.458Z,9.39
2024-03-02T08:12:49.443Z,9.42
2024-03-02T08:13:49.464Z,9.48
2024-03-02T08:14:49.408Z,9.52
2024-03-02T08:15:49.425Z,9.52
2024-03-02T08:16:49.440Z,9.53
2024-03-02T08:17:49.681Z,9.56
2024-03-02T08:18:49.456Z,9.57
2024-03-02T08:19:49.385Z,9.64
2024-03-02T08:20:49.354Z,9.68
2024-03-02T08:21:49.364Z,9.78
2024-03-02T08:22:49.358Z,9.88
2024-03-02T08:23:49.329Z,9.99
2024-03-02T08:24:49.294Z,10.09
2024-03-02T08:25:49.328Z,10.18
2024-03-02T08:26:49.272Z,10.25
2024-03-02T08:27:49.293Z,10.32
2024-03-02T08:28:49.256Z,10.28
2024-03-02T08:29:49.275Z,10.37
2024-03-02T08:30:49.280Z,10.46
2024-03-02T08:31:49.264Z,10.47
2024-03-02T08:32:49.299Z,10.47
2024-03-02T08:33:49.241Z,10.58
2024-03-02T08:34:49.195Z,10.60
2024-03-02T08:35:49.189Z,10.66
2024-03-02T08:36:49.201Z,10.74
2024-03-02T08:37:49.198Z,10.78
2024-03-02T08:38:49.146Z,10.81
2024-03-02T08:39:49.160Z,10.89
2024-03-02T08:40:49.142Z,10.83
2024-03-02T08:41:49.123Z,10.88
2024-03-02T08:42:49.131Z,10.99
2024-03-02T08:43:49.123Z,11.13
2024-03-02T08:44:49.086Z,11.11
2024-03-02T08:45:49.151Z,11.24
2024-03-02T08:46:49.152Z,11.34
2024-03-02T08:47:49.071Z,11.34
2024-03-02T08:48:49.090Z,11.35
2024-03-02T08:49:49.076Z,11.39
2024-03-02T08:50:49.037Z,11.50
2024-03-02T08:51:49.091Z,11.54
2024-03-02T08:52:48.994Z,11.57
2024-03-02T08:53:48.998Z,11.64
2024-03-02T08:54:49.018Z,11.57
2024-03-02T08:55:49.014Z,11.61
2024-03-02T08:56:48.976Z,11.68
2024-03-02T08:57:49.012Z,-39.76
2024-03-02T08:58:48.931Z,11.64
2024-03-02T08:59:48.953Z,11.86
2024-03-02T09:00:49.012Z,12.02
2024-03-02T09:01:48.964Z,12.12
2024-03-02T09:02:48.900Z,12.21
2024-03-02T09:03:48.920Z,12.34
2024-03-02T09:04:48.994Z,12.41
2024-03-02T09:05:48.855Z,12.54
2024-03-02T09:06:48.862Z,12.70
2024-03-02T09:07:48.896Z,12.81
2024-03-02T09:08:48.821Z,12.95
2024-03-02T09:09:48.861Z,12.99
2024-03-02T09:10:48.818Z,12.96
2024-03-02T09:11:48.836Z,-39.76
2024-03-02T09:12:48.818Z,-39.76
2024-03-02T09:13:48.792Z,-39.76
2024-03-02T09:14:48.757Z,-39.76
2024-03-02T09:15:48.760Z,-39.76
2024-03-02T09:16:48.730Z,-39.76
2024-03-02T09:17:48.782Z,-39.76
2024-03-02T09:18:48.782Z,-39.76
2024-03-02T09:19:48.735Z,-39.76
2024-03-02T09:20:48.691Z,-39.76
2024-03-02T09:21:48.695Z,-39.76
2024-03-02T09:22:48.660Z,-39.76
2024-03-02T09:23:48.660Z,12.66
2024-03-02T09:24:48.713Z,13.03
2024-03-02T09:25:48.674Z,13.29
2024-03-02T09:26:48.621Z,13.24
2024-03-02T09:27:48.683Z,13.22
2024-03-02T09:28:48.600Z,13.46
2024-03-02T09:29:48.588Z,13.62
2024-03-02T09:30:48.617Z,13.79
2024-03-02T09:31:48.585Z,13.77
2024-03-02T09:32:50.525Z,13.83
2024-03-02T09:33:48.634Z,13.91
2024-03-02T09:34:48.563Z,13.84
2024-03-02T09:35:48.521Z,14.07
2024-03-02T09:36:48.535Z,14.24
2024-03-02T09:37:48.541Z,14.31
2024-03-02T09:38:48.504Z,14.37
2024-03-02T09:39:48.497Z,14.39
2024-03-02T09:40:48.467Z,14.49
2024-03-02T09:41:48.477Z,14.57
2024-03-02T09:42:48.503Z,14.54
2024-03-02T09:43:48.475Z,14.68
2024-03-02T09:44:48.510Z,14.71
2024-03-02T09:45:48.415Z,-39.76
2024-03-02T09:46:48.528Z,14.95
2024-03-02T09:47:48.672Z,15.31
2024-03-02T09:48:48.496Z,15.39
2024-03-02T09:49:48.540Z,15.51
2024-03-02T09:50:48.524Z,15.36
2024-03-02T09:51:48.387Z,15.48
2024-03-02T09:52:48.357Z,15.17
2024-03-02T09:53:48.322Z,-39.76
2024-03-02T09:54:48.405Z,-39.76
2024-03-02T09:55:48.352Z,-39.76
2024-03-02T09:56:48.296Z,-39.76
2024-03-02T09:57:48.293Z,-39.76
2024-03-02T09:58:48.276Z,-39.76
2024-03-02T09:59:48.261Z,-39.76
2024-03-02T10:00:48.413Z,-39.76
2024-03-02T10:01:48.291Z,-39.76
2024-03-02T10:02:48.231Z,-39.76
2024-03-02T10:03:48.270Z,-39.76
2024-03-02T10:04:48.247Z,-39.76
2024-03-02T10:05:48.213Z,-39.76
2024-03-02T10:06:48.240Z,-39.76
2024-03-02T10:07:48.214Z,16.59
2024-03-02T10:08:48.171Z,17.13
2024-03-02T10:09:48.215Z,17.53
2024-03-02T10:10:48.244Z,18.03
2024-03-02T10:11:48.131Z,18.33
2024-03-02T10:12:48.143Z,18.67
2024-03-02T10:13:48.146Z,18.58
2024-03-02T10:14:48.251Z,18.62
2024-03-02T10:15:48.135Z,18.49
2024-03-02T10:16:48.120Z,18.13
2024-03-02T10:17:48.081Z,18.49
2024-03-02T10:18:48.105Z,19.02
2024-03-02T10:19:48.130Z,18.86
2024-03-02T10:20:48.120Z,18.77
2024-03-02T10:21:48.086Z,19.14
2024-03-02T10:22:48.049Z,19.51
2024-03-02T10:23:48.029Z,19.95
2024-03-02T10:24:50.088Z,19.58
2024-03-02T10:25:54.942Z,19.48
2024-03-02T10:26:47.984Z,19.73
2024-03-02T10:27:47.969Z,19.51
2024-03-02T10:28:47.949Z,19.18
2024-03-02T10:29:47.951Z,19.05
2024-03-02T10:30:47.938Z,18.68
2024-03-02T10:31:47.966Z,18.44
2024-03-02T10:32:47.934Z,18.67
2024-03-02T10:33:47.907Z,18.54
2024-03-02T10:34:47.882Z,18.55
2024-03-02T10:35:47.871Z,18.61
2024-03-02T10:36:47.888Z,18.87
2024-03-02T10:37:47.882Z,19.28
2024-03-02T10:38:47.840Z,19.24
2024-03-02T10:39:47.969Z,19.46
2024-03-02T10:40:47.814Z,19.40
2024-03-02T10:41:47.808Z,19.20
2024-03-02T10:42:48.045Z,19.18
2024-03-02T10:43:47.821Z,19.48
2024-03-02T10:44:47.767Z,19.33
2024-03-02T10:45:47.769Z,19.32
2024-03-02T10:46:47.748Z,19.42
2024-03-02T10:47:47.793Z,19.18
2024-03-02T10:48:47.769Z,19.14
2024-03-02T10:49:47.735Z,19.28
2024-03-02T10:50:47.714Z,18.95
2024-03-02T10:51:47.733Z,18.95
2024-03-02T10:52:47.695Z,19.08
2024-03-02T10:53:47.671Z,18.83
2024-03-02T10:54:47.727Z,18.39
2024-03-02T10:55:47.697Z,18.46
2024-03-02T10:56:47.652Z,18.91
2024-03-02T10:57:47.674Z,19.01
2024-03-02T10:58:47.709Z,-39.76
2024-03-02T10:59:47.607Z,19.66
2024-03-02T11:00:47.747Z,19.97
2024-03-02T11:01:47.668Z,19.88
2024-03-02T11:02:47.599Z,-39.76
2024-03-02T11:03:47.589Z,19.97
2024-03-02T11:04:47.567Z,19.98
2024-03-02T11:05:47.556Z,20.42
2024-03-02T11:06:47.632Z,-39.76
2024-03-02T11:07:47.549Z,-39.76
2024-03-02T11:08:47.505Z,-39.76
2024-03-02T11:09:47.523Z,-39.76
2024-03-02T11:10:47.560Z,-39.76
2024-03-02T11:11:47.480Z,-39.76
2024-03-02T11:12:47.501Z,-39.76
2024-03-02T11:13:47.485Z,-39.76
2024-03-02T11:14:47.504Z,-39.76
2024-03-02T11:15:47.446Z,-39.76
2024-03-02T11:16:47.426Z,-39.76
2024-03-02T11:17:47.406Z,-39.76
2024-03-02T11:18:47.510Z,-39.76
2024-03-02T11:19:47.448Z,-39.76
2024-03-02T11:20:47.416Z,20.90
2024-03-02T11:21:47.387Z,21.24
2024-03-02T11:22:47.357Z,21.61
2024-03-02T11:23:47.339Z,21.69
2024-03-02T11:24:47.352Z,-39.76
2024-03-02T11:25:47.350Z,-39.76
2024-03-02T11:26:47.312Z,-39.76
2024-03-02T11:27:47.529Z,21.21
2024-03-02T11:28:47.290Z,20.59
2024-03-02T11:29:47.271Z,-39.76
2024-03-02T11:30:47.302Z,20.68
2024-03-02T11:31:47.296Z,21.44
2024-03-02T11:32:47.302Z,21.71
2024-03-02T11:33:47.241Z,-39.76
2024-03-02T11:34:47.226Z,21.64
2024-03-02T11:35:47.216Z,-39.76
2024-03-02T11:36:47.324Z,-39.76
2024-03-02T11:37:47.228Z,20.93
2024-03-02T11:38:47.288Z,-39.76
2024-03-02T11:39:47.215Z,-39.76
2024-03-02T11:40:47.181Z,-39.76
2024-03-02T11:41:49.400Z,-39.76
2024-03-02T11:42:47.183Z,-39.76
2024-03-02T11:43:47.274Z,-39.76
2024-03-02T11:44:47.111Z,-39.76
2024-03-02T11:45:47.127Z,20.72
2024-03-02T11:46:47.091Z,21.30
2024-03-02T11:47:47.103Z,21.74
2024-03-02T11:48:47.113Z,-39.76
2024-03-02T11:49:47.138Z,20.91
2024-03-02T11:50:47.175Z,21.42
2024-03-02T11:51:47.056Z,-39.76
2024-03-02T11:52:47.024Z,-39.76
2024-03-02T11:53:47.031Z,21.16
2024-03-02T11:54:47.008Z,21.71
2024-03-02T11:55:47.021Z,22.19
2024-03-02T11:56:46.981Z,22.32
2024-03-02T11:57:47.148Z,22.16
2024-03-02T11:58:47.977Z,21.92
2024-03-02T11:59:46.962Z,21.83
2024-03-02T12:00:53.151Z,21.74
2024-03-02T12:01:46.954Z,22.19
2024-03-02T12:02:46.959Z,22.31
2024-03-02T12:03:46.936Z,22.35
2024-03-02T12:04:46.942Z,22.50
2024-03-02T12:05:46.884Z,22.14
2024-03-02T12:06:46.919Z,-39.76
2024-03-02T12:07:46.861Z,-39.76
2024-03-02T12:08:46.854Z,-39.76
2024-03-02T12:09:46.865Z,-39.76
2024-03-02T12:10:46.859Z,-39.76
2024-03-02T12:11:46.854Z,-39.76
2024-03-02T12:12:46.849Z,-39.76
2024-03-02T12:13:46.795Z,-39.76
2024-03-02T12:14:46.844Z,-39.76
2024-03-02T12:15:46.808Z,-39.76
2024-03-02T12:16:46.813Z,-39.76
2024-03-02T12:17:46.884Z,-39.76
2024-03-02T12:18:46.920Z,-39.76
2024-03-02T12:19:46.732Z,-39.76
2024-03-02T12:20:46.914Z,-39.76
2024-03-02T12:21:46.732Z,-39.76
2024-03-02T12:22:46.713Z,-39.76
2024-03-02T12:23:46.692Z,-39.76
2024-03-02T12:24:46.902Z,-39.76
2024-03-02T12:25:46.731Z,22.80
2024-03-02T12:26:46.661Z,23.11
2024-03-02T12:27:46.761Z,23.57
2024-03-02T12:28:46.656Z,23.87
2024-03-02T12:29:46.752Z,23.71
2024-03-02T12:30:46.749Z,-39.76
2024-03-02T12:31:46.616Z,-39.76
2024-03-02T12:32:46.598Z,-39.76
2024-03-02T12:33:46.713Z,-39.76
2024-03-02T12:34:46.654Z,-39.76
2024-03-02T12:35:46.574Z,-39.76
2024-03-02T12:36:46.601Z,-39.76
2024-03-02T12:37:46.554Z,-39.76
2024-03-02T12:38:46.536Z,23.95
2024-03-02T12:39:46.594Z,24.73
2024-03-02T12:40:46.520Z,25.38
2024-03-02T12:41:46.507Z,25.69
2024-03-02T12:42:46.590Z,25.69
2024-03-02T12:43:46.484Z,24.94
2024-03-02T12:44:46.493Z,24.50
2024-03-02T12:45:46.526Z,24.88
2024-03-02T12:46:46.455Z,25.20
2024-03-02T12:47:46.485Z,25.43
2024-03-02T12:48:46.497Z,25.34
2024-03-02T12:49:46.443Z,25.57
2024-03-02T12:50:46.409Z,25.30
2024-03-02T12:51:46.417Z,24.92
2024-03-02T12:52:46.402Z,24.45
2024-03-02T12:53:46.412Z,24.68
2024-03-02T12:54:46.430Z,24.98
2024-03-02T12:55:46.362Z,25.07
2024-03-02T12:56:46.368Z,25.64
2024-03-02T12:57:49.158Z,26.02
2024-03-02T12:58:46.340Z,26.12
2024-03-02T12:59:46.311Z,26.31
2024-03-02T13:00:46.425Z,26.46
2024-03-02T13:01:46.370Z,26.08
2024-03-02T13:02:46.288Z,25.38
2024-03-02T13:03:46.336Z,24.37
2024-03-02T13:04:46.258Z,23.97